CA-0368 weather

CLOSED McClain Farm Airport
Strathmore, Alberta, Canada

Public forecast

Using degrees Celsius for public forecast. Weather courtesy of forecast.io.

METAR (pilot weather report)

Closest report is Calgary International Airport, 20.0 nm (37.0 km) WNW. Retrieved 2019/06/19 11:39 UTC (0 seconds ago):

CYYC 191139Z 30020G27KT 1 1/2SM TSRA FEW012 OVC035CB 09/07 A2977 RMK CF2CB6 OCNL LTGIC OVRHD PRESRR SLP089 DENSITY ALT 3900FT

TAF (pilot weather forecast)

Closest forecast is Calgary International Airport, 20.0 nm (37.0 km) WNW. Retrieved 2019/06/19 09:42 UTC (1 hour ago):

TAF TAF CYYC 190839Z 1909/2006 05015KT P6SM -SHRA FEW020 OVC050 TEMPO 1909/1912 5SM -SHRA BR OVC020 BECMG 1909/1911 18008KT FM191200 20010KT 5SM -SHRA BR SCT005 OVC012 TEMPO 1912/1915 3SM -SHRA BR OVC005 BECMG 1913/1915 34020G30KT FM191500 34022G32KT 6SM -SHRA BR OVC012 FM192000 34020G30KT P6SM BKN030 PROB30 1922/2004 VRB15G25KT 4SM TSRA BKN030CB RMK NXT FCST BY 191200Z